Time;durP1;ratioP1;P1;durP2;ratioP2;P2;SDS_P1;SDS_P2;PMS_P1;PMS_P2;Temp;Humidity;BMP_temperature;BMP_pressure;BME280_temperature;BME280_humidity;BME280_pressure;Samples;Min_cycle;Max_cycle;Signal;HPM_P1;HPM_P2
2023/10/23 00:00:40;;;;;;;8.60;2.00;;;8.10;1.00;;;;;;5047958;28;20405;-83
2023/10/23 00:03:06;;;;;;;2.43;1.77;;;8.00;1.00;;;;;;5033257;28;20775;-83
2023/10/23 00:12:15;;;;;;;4.73;2.60;;;8.00;1.10;;;;;;5050043;28;20417;-84
2023/10/23 00:14:41;;;;;;;8.17;2.83;;;7.90;1.00;;;;;;5049873;28;20800;-83
2023/10/23 00:17:06;;;;;;;8.77;2.30;;;8.00;2.10;;;;;;5040932;28;20186;-72
2023/10/23 00:19:32;;;;;;;6.33;2.33;;;8.00;1.00;;;;;;5050242;28;20211;-72
2023/10/23 00:21:58;;;;;;;6.17;2.60;;;8.00;1.10;;;;;;5033864;28;20176;-72
2023/10/23 00:24:24;;;;;;;7.57;2.30;;;8.00;1.20;;;;;;5032758;28;20176;-72
2023/10/23 00:26:50;;;;;;;9.13;2.83;;;7.90;2.10;;;;;;5041493;28;20187;-72
2023/10/23 00:29:16;;;;;;;15.70;6.90;;;8.50;3.00;;;;;;5040903;28;20427;-72
2023/10/23 00:31:42;;;;;;;7.30;2.30;;;7.90;1.00;;;;;;5038246;28;20176;-72
2023/10/23 00:34:07;;;;;;;12.67;8.77;;;7.90;1.00;;;;;;5038594;28;20269;-72
2023/10/23 00:36:33;;;;;;;4.33;3.00;;;7.90;1.00;;;;;;5033766;28;20171;-72
2023/10/23 00:38:59;;;;;;;6.17;2.10;;;7.90;1.00;;;;;;5040920;28;20180;-72
2023/10/23 00:41:24;;;;;;;6.30;2.53;;;7.90;1.00;;;;;;5033524;28;20176;-72
2023/10/23 00:43:50;;;;;;;5.30;2.10;;;7.90;1.00;;;;;;5040142;28;20210;-72
2023/10/23 00:46:23;;;;;;;15.90;2.23;;;7.80;1.00;;;;;;5041343;28;20505;-72
2023/10/23 00:48:50;;;;;;;15.23;2.17;;;7.80;1.00;;;;;;5042231;28;20183;-72
2023/10/23 00:51:19;;;;;;;2.13;1.93;;;7.80;1.00;;;;;;5046763;28;20415;-72
2023/10/23 00:53:45;;;;;;;10.03;2.57;;;7.80;1.00;;;;;;5041037;28;20451;-72
2023/10/23 00:56:12;;;;;;;5.37;2.47;;;7.80;1.00;;;;;;5040210;28;21157;-72
2023/10/23 00:58:39;;;;;;;7.77;2.20;;;7.70;1.00;;;;;;5037183;28;20490;-72
2023/10/23 01:01:14;;;;;;;13.10;2.70;;;8.30;1.00;;;;;;5046646;28;20437;-72
2023/10/23 01:03:42;;;;;;;8.60;2.57;;;7.60;1.00;;;;;;5041123;28;20433;-72
2023/10/23 01:06:09;;;;;;;11.77;2.53;;;7.60;1.00;;;;;;5033261;28;20422;-72
2023/10/23 01:08:35;;;;;;;17.43;2.60;;;7.60;1.00;;;;;;5034472;28;20443;-72
2023/10/23 01:11:01;;;;;;;13.43;3.27;;;7.60;1.00;;;;;;5031263;28;20423;-72
2023/10/23 01:13:27;;;;;;;13.07;2.30;;;7.60;1.00;;;;;;5034610;28;20454;-72
2023/10/23 01:15:53;;;;;;;7.33;2.60;;;7.60;1.00;;;;;;5049001;28;20181;-72
2023/10/23 01:25:02;;;;;;;77.90;25.27;;;7.40;1.00;;;;;;5042951;28;20519;-83
2023/10/23 01:31:09;;;;;;;3.17;1.93;;;7.30;1.00;;;;;;5018563;28;20199;-83
2023/10/23 01:36:57;;;;;;;11.87;2.70;;;7.30;1.00;;;;;;5033786;28;20406;-84
2023/10/23 01:42:48;;;;;;;7.67;2.93;;;7.20;1.00;;;;;;5036630;28;20959;-83
2023/10/23 01:48:36;;;;;;;85.57;25.00;;;7.10;1.00;;;;;;5050707;28;20429;-72
2023/10/23 01:51:02;;;;;;;8.20;2.73;;;7.00;1.00;;;;;;5043645;28;20513;-72
2023/10/23 01:53:28;;;;;;;11.53;3.13;;;7.00;1.00;;;;;;5041144;28;20967;-72
2023/10/23 01:55:54;;;;;;;11.90;2.43;;;7.00;1.00;;;;;;5038535;28;20411;-72
2023/10/23 01:58:20;;;;;;;7.00;2.63;;;7.00;1.00;;;;;;5036563;28;20666;-72
2023/10/23 02:00:46;;;;;;;6.70;2.50;;;7.00;1.00;;;;;;5038073;28;20458;-72
2023/10/23 02:03:15;;;;;;;15.23;2.50;;;7.00;1.00;;;;;;5038433;28;20430;-72
2023/10/23 02:05:41;;;;;;;7.90;2.57;;;6.90;1.00;;;;;;5035050;28;20643;-72
2023/10/23 02:08:07;;;;;;;5.77;2.50;;;6.90;1.00;;;;;;5036880;28;20489;-72
2023/10/23 02:10:32;;;;;;;19.73;2.80;;;6.80;1.00;;;;;;5042356;28;20642;-72
2023/10/23 02:12:58;;;;;;;5.80;2.90;;;6.80;1.00;;;;;;5045813;28;20550;-72
2023/10/23 02:15:24;;;;;;;4.93;2.40;;;6.80;1.00;;;;;;5049068;28;20184;-72
2023/10/23 02:17:50;;;;;;;12.40;2.53;;;6.80;1.00;;;;;;5039157;28;20267;-72
2023/10/23 02:26:59;;;;;;;145.63;49.70;;;6.70;1.00;;;;;;5035746;28;20491;-83
2023/10/23 02:32:47;;;;;;;6.03;2.07;;;6.70;1.00;;;;;;5028572;28;20215;-83
2023/10/23 02:35:12;;;;;;;9.20;3.00;;;6.60;1.00;;;;;;5038874;28;20426;-72
2023/10/23 02:37:38;;;;;;;7.13;2.67;;;6.60;1.00;;;;;;5036823;28;20179;-72
2023/10/23 02:40:04;;;;;;;4.07;3.00;;;6.50;1.00;;;;;;5037168;28;20749;-71
2023/10/23 02:42:30;;;;;;;7.37;2.70;;;6.50;1.00;;;;;;5042717;28;20191;-72
2023/10/23 02:44:56;;;;;;;7.10;3.83;;;6.50;1.00;;;;;;5050811;28;20421;-72
2023/10/23 02:47:22;;;;;;;9.43;3.10;;;6.60;1.00;;;;;;5047765;28;20851;-72
2023/10/23 02:50:21;;;;;;;4.20;2.67;;;6.60;1.00;;;;;;5053446;28;20761;-83
2023/10/23 02:52:51;;;;;;;11.07;5.63;;;6.50;1.00;;;;;;5041401;28;20697;-83
2023/10/23 02:55:21;;;;;;;9.00;3.17;;;6.50;1.00;;;;;;5034983;28;20566;-83
2023/10/23 02:58:03;;;;;;;12.73;3.07;;;6.50;1.00;;;;;;5036795;28;20410;-83
2023/10/23 03:03:51;;;;;;;8.17;2.80;;;6.50;1.00;;;;;;5034897;28;20418;-72
2023/10/23 03:06:17;;;;;;;8.43;2.70;;;6.50;1.00;;;;;;5038420;28;20822;-72
2023/10/23 03:08:43;;;;;;;5.33;2.70;;;6.40;1.00;;;;;;5045908;28;20494;-72
2023/10/23 03:11:09;;;;;;;10.63;2.80;;;6.40;1.00;;;;;;5038092;28;20414;-72
2023/10/23 03:13:35;;;;;;;6.73;2.57;;;6.40;1.00;;;;;;5054536;28;20457;-72
2023/10/23 03:16:01;;;;;;;7.43;2.30;;;6.40;1.00;;;;;;5037240;28;20799;-72
2023/10/23 03:18:27;;;;;;;7.33;2.43;;;6.40;1.00;;;;;;5036856;28;20913;-72
2023/10/23 03:24:28;;;;;;;9.90;2.43;;;6.30;1.00;;;;;;5040076;28;20190;-83
2023/10/23 03:30:15;;;;;;;3.40;2.40;;;6.30;1.00;;;;;;5043077;28;20840;-84
2023/10/23 03:36:02;;;;;;;15.43;2.80;;;6.20;1.00;;;;;;5024047;28;20190;-72
2023/10/23 03:38:28;;;;;;;21.83;3.50;;;6.10;1.00;;;;;;5030573;28;20414;-72
2023/10/23 03:41:00;;;;;;;116.43;25.33;;;6.10;1.00;;;;;;5032704;28;20196;-72
2023/10/23 03:43:26;;;;;;;4.77;2.20;;;6.10;1.00;;;;;;5032817;28;20255;-72
2023/10/23 03:45:52;;;;;;;5.30;2.57;;;6.10;1.00;;;;;;5031312;28;20502;-72
2023/10/23 03:48:17;;;;;;;6.40;2.60;;;6.10;1.00;;;;;;5034095;28;20462;-72
2023/10/23 03:50:43;;;;;;;241.87;51.47;;;6.00;1.00;;;;;;5032128;28;20706;-72
2023/10/23 03:53:09;;;;;;;5.00;2.50;;;6.00;1.00;;;;;;5035736;28;20210;-72
2023/10/23 03:55:38;;;;;;;3.97;2.50;;;6.00;1.00;;;;;;5044016;28;20266;-72
2023/10/23 03:58:04;;;;;;;406.77;83.60;;;6.00;1.00;;;;;;5033381;28;20176;-72
2023/10/23 04:00:30;;;;;;;7.07;2.77;;;5.90;1.00;;;;;;5041185;28;20513;-72
2023/10/23 04:02:56;;;;;;;3.77;2.60;;;5.90;1.00;;;;;;5047031;28;20506;-72
2023/10/23 04:08:43;;;;;;;7.17;3.07;;;6.10;1.00;;;;;;5033782;28;20207;-83
2023/10/23 04:14:57;;;;;;;6.70;2.60;;;6.10;1.00;;;;;;5032903;28;20702;-82
2023/10/23 04:20:44;;;;;;;210.17;51.63;;;6.10;1.00;;;;;;5043017;28;20449;-72
2023/10/23 04:23:10;;;;;;;5.97;3.00;;;6.00;1.00;;;;;;5049220;28;20438;-72
2023/10/23 04:25:36;;;;;;;8.50;2.93;;;6.00;1.00;;;;;;5046312;28;20186;-72
2023/10/23 04:28:03;;;;;;;218.90;58.27;;;6.10;1.00;;;;;;5048744;28;20179;-72
2023/10/23 04:30:29;;;;;;;17.03;3.60;;;6.00;1.00;;;;;;5036686;28;20172;-72
2023/10/23 04:32:55;;;;;;;6.20;2.53;;;6.00;1.00;;;;;;5039861;28;20453;-72
2023/10/23 04:35:21;;;;;;;118.63;37.67;;;7.50;1.00;;;;;;5035647;28;20445;-72
2023/10/23 04:37:51;;;;;;;184.23;47.47;;;6.20;1.00;;;;;;5047564;28;20171;-72
2023/10/23 04:40:17;;;;;;;4.93;2.37;;;6.20;1.00;;;;;;5029493;28;20454;-72
2023/10/23 04:42:43;;;;;;;9.00;4.30;;;6.20;1.00;;;;;;5040265;28;20430;-72
2023/10/23 04:45:09;;;;;;;4.37;2.80;;;6.20;1.00;;;;;;5048161;28;20172;-72
2023/10/23 04:47:34;;;;;;;7.40;2.93;;;6.20;1.00;;;;;;5030475;28;20542;-72
2023/10/23 04:50:00;;;;;;;8.50;2.47;;;6.20;1.00;;;;;;5031762;28;20404;-82
2023/10/23 04:52:45;;;;;;;5.90;2.87;;;7.40;1.00;;;;;;5033322;28;20729;-82
2023/10/23 04:55:15;;;;;;;5.47;3.20;;;6.20;1.00;;;;;;5027044;28;20214;-82
2023/10/23 04:57:51;;;;;;;8.77;2.80;;;6.20;1.00;;;;;;5029098;28;21000;-81
2023/10/23 05:07:33;;;;;;;10.40;3.20;;;6.10;1.00;;;;;;5024691;28;20473;-81
2023/10/23 05:10:05;;;;;;;7.27;3.40;;;6.10;1.00;;;;;;5024967;28;20415;-82
2023/10/23 05:15:53;;;;;;;6.30;3.10;;;6.00;1.00;;;;;;5030631;28;21251;-82
2023/10/23 05:18:57;;;;;;;147.50;42.80;;;6.00;1.00;;;;;;5022518;28;20431;-82
2023/10/23 05:21:39;;;;;;;9.43;2.70;;;5.90;1.00;;;;;;5032289;28;20211;-83
2023/10/23 05:27:27;;;;;;;7.73;2.47;;;5.80;1.00;;;;;;5042369;28;20465;-81
2023/10/23 05:30:46;;;;;;;6.20;2.57;;;7.10;1.00;;;;;;5033205;28;20500;-81
2023/10/23 05:37:07;;;;;;;5.93;2.57;;;5.70;1.00;;;;;;5051342;28;20435;-85
2023/10/23 05:43:16;;;;;;;5.50;2.67;;;5.60;1.00;;;;;;5026175;28;20864;-84
2023/10/23 05:49:04;;;;;;;2.70;2.30;;;5.50;1.00;;;;;;5036659;28;20775;-84
2023/10/23 05:51:31;;;;;;;18.87;4.90;;;;;;;;;;5034613;28;20432;-83
2023/10/23 05:53:57;;;;;;;23.87;5.30;;;5.50;1.00;;;;;;5029972;28;20569;-84
2023/10/23 05:57:10;;;;;;;11.13;3.30;;;5.40;1.00;;;;;;5035150;28;20415;-84
2023/10/23 06:02:57;;;;;;;10.63;3.63;;;5.40;1.00;;;;;;5027033;28;20823;-84
2023/10/23 06:09:21;;;;;;;18.20;6.00;;;5.30;1.00;;;;;;5040463;28;20198;-84
2023/10/23 06:12:33;;;;;;;122.73;38.70;;;5.40;1.00;;;;;;5015489;28;20426;-84
2023/10/23 06:14:59;;;;;;;6.30;3.30;;;5.40;1.00;;;;;;5032041;28;20434;-84
2023/10/23 06:17:33;;;;;;;147.73;47.27;;;8.50;1.00;;;;;;5049700;28;20513;-83
2023/10/23 06:23:38;;;;;;;34.73;13.17;;;5.40;1.00;;;;;;5035150;28;20498;-82
2023/10/23 06:26:15;;;;;;;7.00;3.30;;;5.40;1.00;;;;;;5028827;28;20491;-81
2023/10/23 06:32:04;;;;;;;13.33;5.33;;;5.40;1.00;;;;;;5028739;28;20445;-79
2023/10/23 06:34:39;;;;;;;8.43;4.00;;;5.50;1.00;;;;;;5044506;28;20454;-80
2023/10/23 06:37:21;;;;;;;8.37;2.90;;;5.50;1.00;;;;;;5039437;28;20802;-80
2023/10/23 06:43:09;;;;;;;13.00;3.80;;;5.60;1.00;;;;;;5032323;28;20443;-79
2023/10/23 06:45:40;;;;;;;8.80;3.57;;;5.60;1.00;;;;;;5034876;28;20736;-78
2023/10/23 06:51:27;;;;;;;8.93;3.47;;;5.70;1.00;;;;;;5055139;28;20444;-80
2023/10/23 06:57:15;;;;;;;14.93;3.60;;;5.90;1.00;;;;;;5044748;28;20182;-79
2023/10/23 07:00:15;;;;;;;15.33;3.10;;;5.90;1.80;;;;;;5041684;28;20492;-79
2023/10/23 07:06:10;;;;;;;12.20;4.00;;;6.10;4.10;;;;;;5047676;28;20437;-78
2023/10/23 07:11:57;;;;;;;286.83;59.03;;;6.30;4.80;;;;;;5031948;28;20406;-79
2023/10/23 07:15:00;;;;;;;6.07;3.90;;;6.50;4.30;;;;;;5037265;28;20541;-78
2023/10/23 07:18:10;;;;;;;333.00;64.17;;;6.50;7.30;;;;;;5034761;28;20183;-79
2023/10/23 07:24:27;;;;;;;11.17;4.77;;;6.80;10.80;;;;;;5041020;28;20405;-83
2023/10/23 07:30:14;;;;;;;15.00;7.20;;;7.30;14.50;;;;;;5034194;28;20912;-83
2023/10/23 07:32:40;;;;;;;16.57;5.70;;;7.50;18.10;;;;;;5031969;28;20416;-84
2023/10/23 07:39:18;;;;;;;20.47;7.37;;;7.90;20.40;;;;;;5032223;28;20275;-79
2023/10/23 07:42:21;;;;;;;19.77;7.00;;;8.10;20.60;;;;;;5033918;28;20425;-80
2023/10/23 07:48:09;;;;;;;23.87;8.47;;;8.70;15.80;;;;;;5034185;28;20370;-80
2023/10/23 07:53:56;;;;;;;31.07;9.87;;;8.80;14.00;;;;;;5032417;28;20223;-79
2023/10/23 07:59:44;;;;;;;23.90;9.97;;;;;;;;;;5024616;28;20286;-78
2023/10/23 08:02:13;;;;;;;49.87;10.40;;;9.20;1.10;;;;;;5033162;28;20416;-79
2023/10/23 08:04:40;;;;;;;61.03;16.93;;;;;;;;;;5021546;28;20506;-79
2023/10/23 08:07:06;;;;;;;29.03;9.77;;;;;;;;;;5038549;28;20426;-78
2023/10/23 08:10:21;;;;;;;30.50;8.97;;;9.40;1.00;;;;;;5032980;28;20469;-79
2023/10/23 08:16:08;;;;;;;44.80;11.17;;;9.60;1.00;;;;;;5015185;28;20477;-80
2023/10/23 08:25:18;;;;;;;22.53;9.00;;;9.90;1.00;;;;;;5021877;28;20440;-78
2023/10/23 08:31:09;;;;;;;22.07;7.93;;;9.90;1.00;;;;;;5034299;28;20242;-79
2023/10/23 08:34:03;;;;;;;22.23;9.37;;;10.00;1.00;;;;;;5029238;28;20890;-78
2023/10/23 08:37:16;;;;;;;24.23;9.20;;;10.10;1.00;;;;;;5028543;28;20399;-79
2023/10/23 08:40:06;;;;;;;26.20;10.00;;;10.10;1.00;;;;;;5027175;28;20416;-80
2023/10/23 08:43:27;;;;;;;29.63;10.83;;;10.20;1.00;;;;;;5031196;28;20428;-80
2023/10/23 08:46:11;;;;;;;35.13;11.67;;;10.20;1.00;;;;;;5032491;28;20423;-80
2023/10/23 08:49:27;;;;;;;33.20;11.23;;;10.40;1.00;;;;;;5042165;28;20437;-80
2023/10/23 08:55:15;;;;;;;26.27;10.50;;;10.60;1.00;;;;;;5035448;28;20453;-79
2023/10/23 08:57:48;;;;;;;33.00;10.83;;;10.70;1.00;;;;;;5035696;28;20429;-79
2023/10/23 09:00:22;;;;;;;23.90;9.80;;;10.60;1.00;;;;;;5041045;28;20456;-79
2023/10/23 09:02:52;;;;;;;28.93;9.63;;;10.80;1.00;;;;;;5016315;28;20466;-80
2023/10/23 09:05:19;;;;;;;601.83;104.80;;;11.00;1.00;;;;;;5033364;28;20446;-90
2023/10/23 09:08:03;;;;;;;596.47;96.93;;;11.00;1.00;;;;;;5034734;28;20434;-89
2023/10/23 09:11:08;;;;;;;25.30;9.13;;;11.00;1.00;;;;;;5040150;28;20422;-86
2023/10/23 09:13:52;;;;;;;21.50;9.10;;;11.20;1.00;;;;;;4962346;28;20461;-86
2023/10/23 09:16:19;;;;;;;630.90;101.90;;;11.30;1.00;;;;;;4975137;28;20492;-86
2023/10/23 09:25:49;;;;;;;12.33;6.60;;;11.90;1.00;;;;;;4975214;28;20448;-86
2023/10/23 09:28:15;;;;;;;17.20;7.10;;;12.00;1.00;;;;;;4975744;28;20956;-86
2023/10/23 09:44:57;;;;;;;6.77;4.67;;;12.90;1.00;;;;;;4974355;28;20491;-84
2023/10/23 09:51:05;;;;;;;5.20;3.70;;;13.40;1.00;;;;;;5039006;28;21138;-84
2023/10/23 09:53:59;;;;;;;6.07;3.70;;;13.60;1.00;;;;;;5034338;28;20437;-84
2023/10/23 09:56:34;;;;;;;8.07;3.50;;;13.70;1.00;;;;;;5005288;28;1126581;-84
2023/10/23 09:59:07;;;;;;;9.83;3.50;;;13.80;1.00;;;;;;5031169;28;20192;-84
2023/10/23 10:01:41;;;;;;;6.40;2.83;;;13.90;1.00;;;;;;5027736;28;20418;-84
2023/10/23 10:04:17;;;;;;;3.57;2.43;;;14.10;1.00;;;;;;5048311;28;20438;-85
2023/10/23 10:06:48;;;;;;;12.57;4.23;;;14.20;1.00;;;;;;5038019;28;20920;-84
2023/10/23 10:16:05;;;;;;;4.50;3.03;;;14.60;1.00;;;;;;5022633;28;20430;-87
2023/10/23 10:18:42;;;;;;;4.33;2.90;;;14.70;1.00;;;;;;5032468;28;20414;-87
2023/10/23 10:21:23;;;;;;;5.53;2.77;;;14.70;1.00;;;;;;5029844;28;20434;-87
2023/10/23 10:30:48;;;;;;;4.57;3.10;;;15.10;1.00;;;;;;5022954;28;20422;-87
2023/10/23 10:34:03;;;;;;;8.50;3.40;;;15.20;1.00;;;;;;5029065;28;20504;-87
2023/10/23 10:49:56;;;;;;;9.50;2.97;;;15.60;1.00;;;;;;5030430;28;20991;-79
2023/10/23 10:52:51;;;;;;;5.07;2.33;;;15.60;1.00;;;;;;5014815;28;20418;-79
2023/10/23 10:55:17;;;;;;;3.90;2.00;;;15.70;1.00;;;;;;5038972;28;20218;-76
2023/10/23 10:58:21;;;;;;;4.73;2.20;;;15.80;1.00;;;;;;5037691;28;20406;-77
2023/10/23 11:00:52;;;;;;;6.20;2.30;;;15.90;1.00;;;;;;4994948;28;20195;-76
2023/10/23 11:03:22;;;;;;;4.50;2.07;;;15.90;1.00;;;;;;5008540;28;20410;-76
2023/10/23 11:06:05;;;;;;;6.73;2.07;;;16.00;1.00;;;;;;4999351;28;20446;-76
2023/10/23 11:08:40;;;;;;;424.93;139.17;;;16.10;1.00;;;;;;4995183;28;20392;-80
2023/10/23 11:11:45;;;;;;;720.23;174.23;;;16.20;1.00;;;;;;5006533;28;20432;-79
2023/10/23 11:14:59;;;;;;;5.43;2.40;;;16.30;1.00;;;;;;4994979;28;20458;-80
2023/10/23 11:17:34;;;;;;;6.90;1.97;;;16.40;1.00;;;;;;5006589;28;20427;-79
2023/10/23 11:23:33;;;;;;;7.00;2.23;;;16.50;1.00;;;;;;4991675;28;20382;-77
2023/10/23 11:29:21;;;;;;;2.97;1.60;;;16.50;1.00;;;;;;4997528;28;20410;-79
2023/10/23 11:32:13;;;;;;;3.60;2.30;;;16.60;1.00;;;;;;4994663;28;20489;-80
2023/10/23 11:34:47;;;;;;;4.97;2.03;;;16.60;1.00;;;;;;5005159;28;20678;-80
2023/10/23 11:40:57;;;;;;;7.23;1.83;;;16.80;1.00;;;;;;4994218;28;20500;-77
2023/10/23 11:43:23;;;;;;;10.83;2.43;;;16.80;1.00;;;;;;4994925;28;20495;-76
2023/10/23 11:46:33;;;;;;;14.97;5.17;;;16.90;1.00;;;;;;4993893;28;20517;-77
2023/10/23 11:49:01;;;;;;;7.43;2.00;;;16.90;1.00;;;;;;4992641;28;20518;-77
2023/10/23 11:51:27;;;;;;;5.50;2.10;;;17.00;1.00;;;;;;4990219;28;20513;-77
2023/10/23 11:53:59;;;;;;;9.90;2.40;;;17.20;1.00;;;;;;4976984;28;20459;-78
2023/10/23 11:57:15;;;;;;;10.10;1.60;;;17.20;1.00;;;;;;5014823;28;20542;-75
2023/10/23 11:59:41;;;;;;;11.10;2.33;;;17.50;1.00;;;;;;4981421;28;20471;-75
2023/10/23 12:02:22;;;;;;;4.60;2.20;;;17.40;1.00;;;;;;5000260;28;20418;-77
2023/10/23 12:04:47;;;;;;;8.20;2.77;;;17.50;1.00;;;;;;4989993;28;20180;-76
2023/10/23 12:07:33;;;;;;;5.00;1.77;;;17.60;1.00;;;;;;4997703;28;20430;-77
2023/10/23 12:10:16;;;;;;;4.07;1.87;;;17.70;1.00;;;;;;4998356;28;20211;-77
2023/10/23 12:12:43;;;;;;;7.93;2.50;;;17.80;1.00;;;;;;5006105;28;20436;-77
2023/10/23 12:15:12;;;;;;;5.20;1.80;;;17.80;1.00;;;;;;4977234;28;20459;-77
2023/10/23 12:18:09;;;;;;;11.57;2.73;;;17.80;1.00;;;;;;5007303;28;20428;-77
2023/10/23 12:20:57;;;;;;;10.83;2.00;;;17.80;1.00;;;;;;4997193;28;20407;-77
2023/10/23 12:23:45;;;;;;;5.03;2.33;;;17.80;1.00;;;;;;5004308;28;20425;-77
2023/10/23 12:29:58;;;;;;;7.03;2.20;;;17.80;1.00;;;;;;5003211;28;20419;-77
2023/10/23 12:32:26;;;;;;;7.50;2.60;;;18.00;1.00;;;;;;4994973;28;20428;-77
2023/10/23 12:35:21;;;;;;;9.50;2.60;;;18.00;1.00;;;;;;5006494;28;20455;-77
2023/10/23 12:38:15;;;;;;;6.63;2.10;;;18.10;1.00;;;;;;5007167;28;20405;-76
2023/10/23 12:47:51;;;;;;;5.40;2.67;;;17.90;1.00;;;;;;4999906;28;20455;-80
2023/10/23 12:51:03;;;;;;;11.83;2.60;;;17.80;1.00;;;;;;4985207;28;20426;-81
2023/10/23 12:53:57;;;;;;;6.70;2.30;;;17.70;1.00;;;;;;4996253;28;20467;-80
2023/10/23 12:56:45;;;;;;;6.13;2.63;;;17.70;1.00;;;;;;4999507;28;20469;-77
2023/10/23 12:59:34;;;;;;;5.10;2.63;;;17.60;1.00;;;;;;4984796;28;20485;-77
2023/10/23 13:05:22;;;;;;;9.53;2.87;;;17.40;1.00;;;;;;4996579;28;20392;-77
2023/10/23 13:07:57;;;;;;;5.47;2.47;;;17.40;1.00;;;;;;4990404;28;20431;-77
2023/10/23 13:10:45;;;;;;;85.47;59.90;;;17.40;1.00;;;;;;4999439;28;20409;-76
2023/10/23 13:13:39;;;;;;;2.33;2.10;;;17.40;1.00;;;;;;5004669;28;20466;-77
2023/10/23 13:16:22;;;;;;;8.40;2.90;;;17.30;1.00;;;;;;4992149;28;20436;-77
2023/10/23 13:18:48;;;;;;;5.67;2.20;;;17.30;1.00;;;;;;4992679;28;20428;-77
2023/10/23 13:21:14;;;;;;;6.60;2.50;;;17.30;1.00;;;;;;4990230;28;20527;-77
2023/10/23 13:23:40;;;;;;;12.67;3.60;;;17.30;1.00;;;;;;4992650;28;20539;-78
2023/10/23 13:26:33;;;;;;;5.93;2.10;;;17.10;1.00;;;;;;4996664;28;20192;-78
2023/10/23 13:29:17;;;;;;;6.93;2.00;;;17.10;1.00;;;;;;4987989;28;20387;-78
2023/10/23 13:32:15;;;;;;;10.50;2.20;;;17.00;1.00;;;;;;4996975;28;20983;-77
2023/10/23 13:35:27;;;;;;;5.13;2.20;;;17.00;1.00;;;;;;4998234;28;20858;-78
2023/10/23 13:38:15;;;;;;;6.10;2.40;;;16.90;1.00;;;;;;5005675;28;20519;-78
2023/10/23 13:41:21;;;;;;;11.37;2.63;;;16.80;1.00;;;;;;4999986;28;20450;-80
2023/10/23 13:47:08;;;;;;;3.67;2.00;;;16.60;1.00;;;;;;5002563;28;20965;-80
2023/10/23 13:50:09;;;;;;;3.90;1.80;;;16.60;1.00;;;;;;5006454;28;20405;-80
2023/10/23 13:52:51;;;;;;;5.53;2.37;;;16.50;1.00;;;;;;4998711;28;20185;-80
2023/10/23 14:02:27;;;;;;;7.73;1.93;;;16.40;1.00;;;;;;4996996;28;20793;-80
2023/10/23 14:04:53;;;;;;;5.90;1.90;;;16.40;1.00;;;;;;4999705;28;20385;-81
2023/10/23 14:07:19;;;;;;;5.90;2.27;;;;;;;;;;4995166;28;20491;-80
2023/10/23 14:09:46;;;;;;;5.33;1.93;;;16.40;1.00;;;;;;4996118;28;21237;-80
2023/10/23 14:12:15;;;;;;;3.90;1.60;;;16.40;1.00;;;;;;5003640;28;20416;-80
2023/10/23 14:14:59;;;;;;;3.43;1.77;;;16.30;1.00;;;;;;4995005;28;20489;-83
2023/10/23 14:17:25;;;;;;;5.07;1.90;;;16.30;1.00;;;;;;5011235;28;20438;-82
2023/10/23 14:20:33;;;;;;;6.63;1.80;;;16.30;1.00;;;;;;5001223;28;20412;-81
2023/10/23 14:23:33;;;;;;;9.40;2.10;;;16.20;1.00;;;;;;5010907;28;20629;-82
2023/10/23 14:26:27;;;;;;;2.43;2.23;;;16.20;1.00;;;;;;4999386;28;20439;-82
2023/10/23 14:29:04;;;;;;;4.03;1.83;;;16.20;1.00;;;;;;5002125;28;20837;-82
2023/10/23 14:35:31;;;;;;;7.90;1.60;;;16.20;1.00;;;;;;5005487;28;21032;-81
2023/10/23 14:54:46;;;;;;;4.90;2.37;;;16.00;1.00;;;;;;4995173;28;20473;-87
2023/10/23 14:57:22;;;;;;;7.47;2.00;;;15.90;1.00;;;;;;4976512;28;20389;-88
2023/10/23 14:59:47;;;;;;;15.27;2.40;;;15.90;1.00;;;;;;4992290;28;20577;-87
2023/10/23 15:02:57;;;;;;;9.07;1.70;;;15.90;1.00;;;;;;4999982;28;20500;-87
2023/10/23 15:05:23;;;;;;;5.13;2.23;;;15.70;1.00;;;;;;4989412;28;20189;-88
2023/10/23 15:07:52;;;;;;;3.43;1.83;;;15.60;1.00;;;;;;4998842;28;20410;-86
2023/10/23 15:13:39;;;;;;;5.53;2.00;;;15.60;1.00;;;;;;4999978;28;20483;-87
2023/10/23 15:16:39;;;;;;;10.03;2.10;;;15.50;1.00;;;;;;4999071;28;20435;-87
2023/10/23 15:25:52;;;;;;;6.40;2.33;;;15.30;1.00;;;;;;5002655;28;20480;-90
2023/10/23 15:28:18;;;;;;;11.20;2.80;;;15.20;1.00;;;;;;4998795;28;20472;-83
2023/10/23 15:37:27;;;;;;;5.90;2.00;;;15.00;1.00;;;;;;4993963;28;20408;-86
2023/10/23 15:43:28;;;;;;;5.20;1.70;;;14.80;1.00;;;;;;4983817;28;20198;-88
2023/10/23 15:49:16;;;;;;;4.07;2.10;;;14.70;1.00;;;;;;4995736;28;20398;-89
2023/10/23 15:51:52;;;;;;;3.33;2.43;;;15.30;1.00;;;;;;5008885;28;20403;-89
2023/10/23 15:57:39;;;;;;;9.07;2.20;;;14.60;1.00;;;;;;4989345;28;20499;-84
2023/10/23 16:06:50;;;;;;;10.83;2.83;;;14.40;1.00;;;;;;4997200;28;20427;-83
2023/10/23 16:09:45;;;;;;;7.67;2.43;;;14.50;1.00;;;;;;4993568;28;20924;-85
2023/10/23 16:12:11;;;;;;;4.97;2.27;;;;;;;;;;4993867;28;20448;-86
2023/10/23 16:14:40;;;;;;;6.93;2.07;;;14.40;1.00;;;;;;4997475;28;20464;-86
2023/10/23 16:20:50;;;;;;;4.47;2.63;;;14.30;1.00;;;;;;4995003;28;20419;-84
2023/10/23 16:23:15;;;;;;;5.17;2.03;;;14.20;1.00;;;;;;4992557;28;20466;-84
2023/10/23 16:26:33;;;;;;;2.73;2.53;;;14.20;1.00;;;;;;4994430;28;20428;-84
2023/10/23 16:29:27;;;;;;;6.60;3.07;;;14.10;1.00;;;;;;4997820;28;20192;-87
2023/10/23 16:39:10;;;;;;;7.67;4.37;;;14.00;1.00;;;;;;4994245;28;20416;-89
2023/10/23 16:51:52;;;;;;;9.93;5.33;;;13.90;1.00;;;;;;4996082;28;20407;-88
2023/10/23 16:57:40;;;;;;;9.70;5.20;;;13.90;1.00;;;;;;5001790;28;20450;-84
2023/10/23 17:00:45;;;;;;;24.57;6.30;;;13.80;1.00;;;;;;4993088;28;20415;-83
2023/10/23 17:13:22;;;;;;;13.67;6.63;;;13.70;1.00;;;;;;4998199;28;20426;-88
2023/10/23 17:16:39;;;;;;;12.77;6.97;;;14.40;1.00;;;;;;5000059;28;20765;-88
2023/10/23 17:19:27;;;;;;;14.60;6.97;;;13.60;1.00;;;;;;4996157;28;20416;-90
2023/10/23 17:28:37;;;;;;;18.13;7.40;;;13.60;1.00;;;;;;4999321;28;20450;-84
2023/10/23 17:37:47;;;;;;;24.63;8.23;;;13.50;1.00;;;;;;4994565;28;20428;-82
2023/10/23 17:40:39;;;;;;;11.80;6.50;;;13.50;1.00;;;;;;5000625;28;20800;-84
2023/10/23 17:53:11;;;;;;;10.57;5.60;;;13.40;1.00;;;;;;4993397;28;20484;-87
2023/10/23 17:55:46;;;;;;;12.73;6.20;;;13.40;1.00;;;;;;4995056;28;20483;-87
2023/10/23 17:58:11;;;;;;;13.77;5.70;;;13.40;1.00;;;;;;4999310;28;20546;-88
2023/10/23 18:00:46;;;;;;;13.73;6.73;;;13.40;1.00;;;;;;4993589;28;20420;-88
2023/10/23 18:07:03;;;;;;;12.10;7.03;;;13.50;1.00;;;;;;4994405;28;20958;-87
2023/10/23 18:09:40;;;;;;;12.30;6.43;;;13.50;1.00;;;;;;4992948;28;20437;-87
2023/10/23 18:12:57;;;;;;;14.87;6.87;;;13.50;1.00;;;;;;5011894;28;20781;-88
2023/10/23 18:15:23;;;;;;;14.40;7.13;;;13.50;1.00;;;;;;4997432;28;20472;-87
2023/10/23 18:21:11;;;;;;;10.97;5.60;;;13.40;1.00;;;;;;4983082;28;20227;-84
2023/10/23 18:24:09;;;;;;;15.10;6.53;;;13.40;1.00;;;;;;5009872;28;20440;-86
2023/10/23 18:27:21;;;;;;;19.67;5.97;;;13.40;1.00;;;;;;4990525;28;20279;-87
2023/10/23 18:29:54;;;;;;;14.63;6.20;;;13.30;1.00;;;;;;5006248;28;20505;-86
2023/10/23 18:35:41;;;;;;;10.10;5.37;;;13.30;1.00;;;;;;4999312;28;20403;-86
2023/10/23 18:38:41;;;;;;;21.43;6.40;;;13.30;1.00;;;;;;5004110;28;20425;-88
2023/10/23 18:41:18;;;;;;;17.77;7.13;;;13.30;1.00;;;;;;4993747;28;20180;-88
2023/10/23 18:43:58;;;;;;;22.33;7.90;;;13.30;1.00;;;;;;5000630;28;20387;-86
2023/10/23 18:53:10;;;;;;;13.20;7.30;;;13.30;1.00;;;;;;4994578;28;20407;-87
2023/10/23 18:55:46;;;;;;;12.57;6.10;;;13.50;1.00;;;;;;5008831;28;21194;-87
2023/10/23 18:58:16;;;;;;;15.70;6.37;;;13.30;1.00;;;;;;4993869;28;20441;-87
2023/10/23 19:04:04;;;;;;;10.17;5.83;;;13.30;1.00;;;;;;4995967;28;20430;-83
2023/10/23 19:10:33;;;;;;;12.57;6.27;;;13.30;1.00;;;;;;5003095;28;20271;-83
2023/10/23 19:20:05;;;;;;;9.23;6.10;;;13.30;1.00;;;;;;4995157;28;20787;-83
2023/10/23 19:25:53;;;;;;;10.87;5.87;;;13.20;1.00;;;;;;4997370;28;20769;-83
2023/10/23 19:29:09;;;;;;;11.07;6.47;;;13.20;1.00;;;;;;5014810;28;20388;-83
2023/10/23 19:31:59;;;;;;;22.30;6.30;;;13.20;1.00;;;;;;4983930;28;20416;-83
2023/10/23 19:35:03;;;;;;;7.93;5.20;;;13.20;1.00;;;;;;5007064;28;20464;-83
2023/10/23 19:37:35;;;;;;;14.57;6.20;;;13.20;1.00;;;;;;4994620;28;20410;-82
2023/10/23 19:40:04;;;;;;;14.73;5.60;;;13.10;1.00;;;;;;4999875;28;20526;-83
2023/10/23 19:42:40;;;;;;;13.10;7.53;;;13.10;1.00;;;;;;5000702;28;20498;-83
2023/10/23 19:45:09;;;;;;;14.30;6.97;;;13.10;1.00;;;;;;4994788;28;20440;-79
2023/10/23 19:47:35;;;;;;;9.80;4.87;;;13.10;1.00;;;;;;4988030;28;20417;-73
2023/10/23 19:50:03;;;;;;;12.67;5.27;;;13.10;1.00;;;;;;4995183;28;20441;-73
2023/10/23 19:52:30;;;;;;;11.80;5.50;;;13.10;1.00;;;;;;4997952;28;20425;-74
2023/10/23 19:54:56;;;;;;;11.20;5.53;;;13.10;1.00;;;;;;4995947;28;20435;-73
2023/10/23 19:57:22;;;;;;;13.93;5.80;;;13.10;1.00;;;;;;5002468;28;20393;-73
2023/10/23 19:59:48;;;;;;;23.67;6.77;;;13.10;1.00;;;;;;5017621;28;20821;-73
2023/10/23 20:05:36;;;;;;;8.43;4.70;;;13.10;1.00;;;;;;4986186;28;20228;-83
2023/10/23 20:08:21;;;;;;;8.13;4.30;;;13.10;1.00;;;;;;5008128;28;20391;-83
2023/10/23 20:14:22;;;;;;;13.83;4.27;;;13.10;1.00;;;;;;4994686;28;20459;-83
2023/10/23 20:17:22;;;;;;;5.63;3.67;;;13.10;2.40;;;;;;4993430;28;20864;-83